createdAt,value
2023-05-02T00:01:18.785Z,12.70
2023-05-02T00:03:45.527Z,12.48
2023-05-02T00:06:12.675Z,12.85
2023-05-02T00:08:39.548Z,11.88
2023-05-02T00:11:06.166Z,11.30
2023-05-02T00:13:32.773Z,13.30
2023-05-02T00:15:59.328Z,13.50
2023-05-02T00:18:25.987Z,12.05
2023-05-02T00:20:52.546Z,11.50
2023-05-02T00:23:19.216Z,13.35
2023-05-02T00:25:46.205Z,14.45
2023-05-02T00:28:13.832Z,12.80
2023-05-02T00:30:47.233Z,13.25
2023-05-02T00:33:15.854Z,12.23
2023-05-02T00:35:42.631Z,13.18
2023-05-02T00:38:09.468Z,12.73
2023-05-02T00:40:51.101Z,13.82
2023-05-02T00:43:17.950Z,12.88
2023-05-02T00:45:46.147Z,13.18
2023-05-02T00:48:13.597Z,13.82
2023-05-02T00:50:43.565Z,14.48
2023-05-02T00:53:10.887Z,13.82
2023-05-02T00:55:38.009Z,12.65
2023-05-02T00:58:12.108Z,14.00
2023-05-02T01:01:00.543Z,12.80
2023-05-02T01:03:33.149Z,13.57
2023-05-02T01:06:28.811Z,14.35
2023-05-02T01:09:14.317Z,12.95
2023-05-02T01:12:04.791Z,12.68
2023-05-02T01:14:36.069Z,12.65
2023-05-02T01:17:10.076Z,12.73
2023-05-02T01:19:40.524Z,11.95
2023-05-02T01:22:10.690Z,14.32
2023-05-02T01:24:54.785Z,13.68
2023-05-02T01:27:51.031Z,13.02
2023-05-02T01:30:20.222Z,13.05
2023-05-02T01:32:50.169Z,12.98
2023-05-02T01:35:18.049Z,13.48
2023-05-02T01:37:47.158Z,11.75
2023-05-02T01:40:19.393Z,12.75
2023-05-02T01:42:50.125Z,11.85
2023-05-02T01:45:19.018Z,12.68
2023-05-02T01:47:46.761Z,13.43
2023-05-02T01:50:17.436Z,13.20
2023-05-02T01:52:46.981Z,13.00
2023-05-02T01:55:15.438Z,11.80
2023-05-02T01:57:46.149Z,12.93
2023-05-02T02:00:16.381Z,11.75
2023-05-02T02:02:46.715Z,12.23
2023-05-02T02:05:14.798Z,13.50
2023-05-02T02:07:42.886Z,11.60
2023-05-02T02:10:09.670Z,14.00
2023-05-02T02:12:43.291Z,11.77
2023-05-02T02:15:16.297Z,12.77
2023-05-02T02:18:12.097Z,12.40
2023-05-02T02:20:43.056Z,11.57
2023-05-02T02:23:11.028Z,12.02
2023-05-02T02:25:38.176Z,13.40
2023-05-02T02:28:05.037Z,12.73
2023-05-02T02:30:31.877Z,13.52
2023-05-02T02:32:58.683Z,12.55
2023-05-02T02:35:33.272Z,10.50
2023-05-02T02:38:29.425Z,11.30
2023-05-02T02:41:23.489Z,9.73
2023-05-02T02:44:13.479Z,12.18
2023-05-02T02:46:52.164Z,13.73
2023-05-02T02:52:10.919Z,12.88
2023-05-02T02:55:07.523Z,13.07
2023-05-02T02:58:13.171Z,13.18
2023-05-02T03:00:40.554Z,12.68
2023-05-02T03:03:08.016Z,13.30
2023-05-02T03:05:35.542Z,13.95
2023-05-02T03:08:02.230Z,12.88
2023-05-02T03:10:28.837Z,13.05
2023-05-02T03:12:55.677Z,13.82
2023-05-02T03:15:46.660Z,13.73
2023-05-02T03:18:14.233Z,12.60
2023-05-02T03:20:41.961Z,12.35
2023-05-02T03:23:09.029Z,11.85
2023-05-02T03:25:35.690Z,12.80
2023-05-02T03:28:02.770Z,12.77
2023-05-02T03:30:29.661Z,11.73
2023-05-02T03:32:57.111Z,11.80
2023-05-02T03:35:23.837Z,11.07
2023-05-02T03:40:21.940Z,10.43
2023-05-02T03:42:48.852Z,11.75
2023-05-02T03:45:24.875Z,11.68
2023-05-02T03:47:52.721Z,11.93
2023-05-02T03:50:19.620Z,10.68
2023-05-02T03:52:48.798Z,10.75
2023-05-02T03:55:19.843Z,9.88
2023-05-02T03:57:47.181Z,10.93
2023-05-02T04:00:14.121Z,12.73
2023-05-02T04:02:48.019Z,11.05
2023-05-02T04:05:18.918Z,11.80
2023-05-02T04:07:48.283Z,12.85
2023-05-02T04:10:18.373Z,12.15
2023-05-02T04:12:51.803Z,12.63
2023-05-02T04:15:19.353Z,12.32
2023-05-02T04:17:47.687Z,12.85
2023-05-02T04:20:15.785Z,12.45
2023-05-02T04:22:48.003Z,13.70
2023-05-02T04:25:15.309Z,12.52
2023-05-02T04:27:42.939Z,14.05
2023-05-02T04:30:12.936Z,13.82
2023-05-02T04:32:41.819Z,14.07
2023-05-02T04:35:10.067Z,11.35
2023-05-02T04:37:38.114Z,12.52
2023-05-02T04:40:06.570Z,12.98
2023-05-02T04:42:33.265Z,13.45
2023-05-02T04:45:21.334Z,14.50
2023-05-02T04:47:48.856Z,16.13
2023-05-02T04:50:16.044Z,16.17
2023-05-02T04:52:42.695Z,14.98
2023-05-02T04:55:09.703Z,15.07
2023-05-02T04:57:37.277Z,14.65
2023-05-02T05:00:04.370Z,15.25
2023-05-02T05:02:31.266Z,14.77
2023-05-02T05:04:58.423Z,14.80
2023-05-02T05:07:25.708Z,15.88
2023-05-02T05:12:23.736Z,14.50
2023-05-02T05:14:50.955Z,15.38
2023-05-02T05:17:22.941Z,16.65
2023-05-02T05:19:49.639Z,15.60
2023-05-02T05:22:16.374Z,17.05
2023-05-02T05:24:43.187Z,15.68
2023-05-02T05:27:10.788Z,14.30
2023-05-02T05:29:37.374Z,15.13
2023-05-02T05:32:06.185Z,15.07
2023-05-02T05:34:33.705Z,16.55
2023-05-02T05:37:01.517Z,19.83
2023-05-02T05:39:28.368Z,16.70
2023-05-02T05:41:57.699Z,17.70
2023-05-02T05:44:25.488Z,18.95
2023-05-02T05:46:52.504Z,19.55
2023-05-02T05:49:22.175Z,19.92
2023-05-02T05:51:49.216Z,18.48
2023-05-02T05:56:46.143Z,22.05
2023-05-02T05:59:16.550Z,20.75
2023-05-02T06:01:43.140Z,20.05
2023-05-02T06:04:11.004Z,20.07
2023-05-02T06:06:41.591Z,19.42
2023-05-02T06:09:08.351Z,19.90
2023-05-02T06:11:38.191Z,18.27
2023-05-02T06:16:32.250Z,16.80
2023-05-02T06:18:59.001Z,17.58
2023-05-02T06:21:26.226Z,16.42
2023-05-02T06:23:53.109Z,15.40
2023-05-02T06:26:19.733Z,16.10
2023-05-02T06:28:47.551Z,15.45
2023-05-02T06:31:14.603Z,15.93
2023-05-02T06:33:41.232Z,14.45
2023-05-02T06:36:07.820Z,15.05
2023-05-02T06:38:34.466Z,15.35
2023-05-02T06:41:01.098Z,13.98
2023-05-02T06:43:28.277Z,15.23
2023-05-02T06:45:56.368Z,14.98
2023-05-02T06:48:23.177Z,13.77
2023-05-02T06:50:51.859Z,13.65
2023-05-02T06:53:18.525Z,13.50
2023-05-02T06:55:46.297Z,12.52
2023-05-02T06:58:12.955Z,14.25
2023-05-02T07:00:39.647Z,13.20
2023-05-02T07:03:06.605Z,12.80
2023-05-02T07:05:33.326Z,13.63
2023-05-02T07:08:00.115Z,13.23
2023-05-02T07:10:26.704Z,12.90
2023-05-02T07:12:53.256Z,13.48
2023-05-02T07:15:19.863Z,13.02
2023-05-02T07:17:47.750Z,12.70
2023-05-02T07:20:15.641Z,12.90
2023-05-02T07:22:43.253Z,12.68
2023-05-02T07:25:10.624Z,10.88
2023-05-02T07:27:37.271Z,11.52
2023-05-02T07:30:04.536Z,11.55
2023-05-02T07:32:31.507Z,11.10
2023-05-02T07:34:58.335Z,12.27
2023-05-02T07:37:25.136Z,12.68
2023-05-02T07:39:51.771Z,11.15
2023-05-02T07:42:18.426Z,10.63
2023-05-02T07:44:45.086Z,11.07
2023-05-02T07:47:11.725Z,11.00
2023-05-02T07:49:38.393Z,11.40
2023-05-02T07:52:05.149Z,10.95
2023-05-02T07:54:31.860Z,10.52
2023-05-02T07:57:02.289Z,11.23
2023-05-02T07:59:31.079Z,10.23
2023-05-02T08:01:57.826Z,9.75
2023-05-02T08:04:24.525Z,9.98
2023-05-02T08:06:51.736Z,10.13
2023-05-02T08:09:18.539Z,10.57
2023-05-02T08:11:45.245Z,9.68
2023-05-02T08:14:11.949Z,9.13
2023-05-02T08:16:38.818Z,10.40
2023-05-02T08:19:05.663Z,8.77
2023-05-02T08:21:32.495Z,8.80
2023-05-02T08:23:59.398Z,9.05
2023-05-02T08:26:26.244Z,9.63
2023-05-02T08:28:53.098Z,8.80
2023-05-02T08:31:19.775Z,9.15
2023-05-02T08:33:46.734Z,8.55
2023-05-02T08:36:15.074Z,8.82
2023-05-02T08:41:13.856Z,8.57
2023-05-02T08:43:40.823Z,8.82
2023-05-02T08:46:08.504Z,9.13
2023-05-02T08:48:40.477Z,9.55
2023-05-02T08:51:13.705Z,8.82
2023-05-02T08:53:41.547Z,8.98
2023-05-02T08:56:09.675Z,9.30
2023-05-02T08:58:38.006Z,9.57
2023-05-02T09:03:37.239Z,9.13
2023-05-02T09:06:07.199Z,8.87
2023-05-02T09:08:35.786Z,9.18
2023-05-02T09:11:04.015Z,9.35
2023-05-02T09:13:38.574Z,7.97
2023-05-02T09:16:15.920Z,9.20
2023-05-02T09:18:44.386Z,8.77
2023-05-02T09:21:22.036Z,9.30
2023-05-02T09:23:49.693Z,8.52
2023-05-02T09:26:21.577Z,9.73
2023-05-02T09:28:55.834Z,9.32
2023-05-02T09:31:49.400Z,7.60
2023-05-02T09:34:16.207Z,9.07
2023-05-02T09:36:45.306Z,8.75
2023-05-02T09:39:14.316Z,9.18
2023-05-02T09:41:45.563Z,8.38
2023-05-02T09:44:13.974Z,9.57
2023-05-02T09:46:42.575Z,8.85
2023-05-02T09:49:10.027Z,9.13
2023-05-02T09:51:37.071Z,9.75
2023-05-02T09:54:04.387Z,9.80
2023-05-02T09:56:31.039Z,10.07
2023-05-02T09:59:16.583Z,9.88
2023-05-02T10:01:43.691Z,9.07
2023-05-02T10:04:18.919Z,8.75
2023-05-02T10:06:47.312Z,8.82
2023-05-02T10:09:19.725Z,9.25
2023-05-02T10:11:52.010Z,9.07
2023-05-02T10:14:22.758Z,9.45
2023-05-02T10:17:01.723Z,9.48
2023-05-02T10:19:54.767Z,9.93
2023-05-02T10:22:22.485Z,9.77
2023-05-02T10:24:50.384Z,9.52
2023-05-02T10:27:17.162Z,10.07
2023-05-02T10:29:44.783Z,9.77
2023-05-02T10:32:11.499Z,10.55
2023-05-02T10:34:40.567Z,9.50
2023-05-02T10:37:07.273Z,9.57
2023-05-02T10:39:34.146Z,8.77
2023-05-02T10:42:03.483Z,10.00
2023-05-02T10:44:37.919Z,9.98
2023-05-02T10:47:21.753Z,10.70
2023-05-02T10:49:52.518Z,9.25
2023-05-02T10:52:29.115Z,9.65
2023-05-02T10:55:21.725Z,9.10
2023-05-02T10:57:57.587Z,8.70
2023-05-02T11:00:26.396Z,9.55
2023-05-02T11:02:53.192Z,9.35
2023-05-02T11:05:19.895Z,8.18
2023-05-02T11:07:46.556Z,8.63
2023-05-02T11:10:22.327Z,8.50
2023-05-02T11:12:49.843Z,8.50
2023-05-02T11:15:39.517Z,7.78
2023-05-02T11:18:13.569Z,7.65
2023-05-02T11:20:42.188Z,8.15
2023-05-02T11:23:15.438Z,6.63
2023-05-02T11:25:44.209Z,6.93
2023-05-02T11:28:38.642Z,7.35
2023-05-02T11:31:06.681Z,7.00
2023-05-02T11:33:33.790Z,6.82
2023-05-02T11:36:00.598Z,7.53
2023-05-02T11:38:36.935Z,7.30
2023-05-02T11:41:04.414Z,6.95
2023-05-02T11:43:32.387Z,7.05
2023-05-02T11:48:27.600Z,7.18
2023-05-02T11:51:03.581Z,6.90
2023-05-02T11:53:31.473Z,6.45
2023-05-02T11:55:59.208Z,6.82
2023-05-02T11:58:30.255Z,6.90
2023-05-02T12:00:57.323Z,6.38
2023-05-02T12:03:31.174Z,5.47
2023-05-02T12:06:11.087Z,4.85
2023-05-02T12:08:38.323Z,5.03
2023-05-02T12:11:05.096Z,5.60
2023-05-02T12:13:31.741Z,5.47
2023-05-02T12:15:58.736Z,5.10
2023-05-02T12:18:27.161Z,5.35
2023-05-02T12:20:56.056Z,5.90
2023-05-02T12:23:26.313Z,4.82
2023-05-02T12:25:53.250Z,4.95
2023-05-02T12:28:20.400Z,5.50
2023-05-02T12:30:50.296Z,5.53
2023-05-02T12:33:17.805Z,4.93
2023-05-02T12:35:48.186Z,4.93
2023-05-02T12:38:22.751Z,4.88
2023-05-02T12:40:54.029Z,4.70
2023-05-02T12:43:22.140Z,4.93
2023-05-02T12:45:49.745Z,5.60
2023-05-02T12:48:27.603Z,6.45
2023-05-02T12:50:55.453Z,5.28
2023-05-02T12:53:54.705Z,6.03
2023-05-02T12:56:22.105Z,7.18
2023-05-02T12:58:49.326Z,7.57
2023-05-02T13:01:16.232Z,7.68
2023-05-02T13:03:43.972Z,6.65
2023-05-02T13:06:11.129Z,7.03
2023-05-02T13:08:38.034Z,6.30
2023-05-02T13:11:05.043Z,6.80
2023-05-02T13:13:32.699Z,6.68
2023-05-02T13:15:59.502Z,6.53
2023-05-02T13:18:28.124Z,5.95
2023-05-02T13:20:54.999Z,4.30
2023-05-02T13:23:21.644Z,4.57
2023-05-02T13:25:48.225Z,4.00
2023-05-02T13:28:14.957Z,3.58
2023-05-02T13:30:41.730Z,3.00
2023-05-02T13:33:08.525Z,3.63
2023-05-02T13:35:35.471Z,3.55
2023-05-02T13:38:03.230Z,3.75
2023-05-02T13:40:29.888Z,3.50
2023-05-02T13:42:56.487Z,4.10
2023-05-02T13:45:23.186Z,3.70
2023-05-02T13:47:49.851Z,4.20
2023-05-02T13:50:16.666Z,3.72
2023-05-02T13:52:43.311Z,4.13
2023-05-02T13:55:10.015Z,4.55
2023-05-02T13:57:36.636Z,4.07
2023-05-02T14:00:04.375Z,3.80
2023-05-02T14:02:31.835Z,3.28
2023-05-02T14:04:58.495Z,3.60
2023-05-02T14:07:25.197Z,4.30
2023-05-02T14:09:51.824Z,4.57
2023-05-02T14:12:18.419Z,3.90
2023-05-02T14:14:44.999Z,3.92
2023-05-02T14:17:11.580Z,3.25
2023-05-02T14:19:38.181Z,3.45
2023-05-02T14:22:04.862Z,2.83
2023-05-02T14:24:31.505Z,2.30
2023-05-02T14:26:58.520Z,2.97
2023-05-02T14:29:25.168Z,2.50
2023-05-02T14:31:51.809Z,2.47
2023-05-02T14:34:18.648Z,2.90
2023-05-02T14:36:45.427Z,2.67
2023-05-02T14:39:12.082Z,3.00
2023-05-02T14:41:38.672Z,2.60
2023-05-02T14:44:05.338Z,2.75
2023-05-02T14:46:32.027Z,2.60
2023-05-02T14:48:58.652Z,2.53
2023-05-02T14:51:25.417Z,2.60
2023-05-02T14:53:52.445Z,2.50
2023-05-02T14:56:19.150Z,2.60
2023-05-02T14:58:46.251Z,2.40
2023-05-02T15:01:20.466Z,2.80
2023-05-02T15:04:04.330Z,3.00
2023-05-02T15:06:32.724Z,2.47
2023-05-02T15:08:59.536Z,2.50
2023-05-02T15:11:26.107Z,3.25
2023-05-02T15:13:52.686Z,2.83
2023-05-02T15:16:19.609Z,3.03
2023-05-02T15:18:46.324Z,3.00
2023-05-02T15:21:14.204Z,3.13
2023-05-02T15:23:40.977Z,3.28
2023-05-02T15:26:07.624Z,2.97
2023-05-02T15:28:34.238Z,3.38
2023-05-02T15:31:00.910Z,3.30
2023-05-02T15:33:28.688Z,3.00
2023-05-02T15:36:00.736Z,3.20
2023-05-02T15:38:27.621Z,3.40
2023-05-02T15:41:00.147Z,4.35
2023-05-02T15:43:46.261Z,4.80
2023-05-02T15:50:58.792Z,6.07
2023-05-02T15:53:25.589Z,6.20
2023-05-02T15:55:52.684Z,6.75
2023-05-02T15:58:19.722Z,6.70
2023-05-02T16:00:47.478Z,8.35
2023-05-02T16:03:14.302Z,7.28
2023-05-02T16:05:41.353Z,8.07
2023-05-02T16:08:08.029Z,7.85
2023-05-02T16:10:36.574Z,8.60
2023-05-02T16:13:03.371Z,8.20
2023-05-02T16:15:30.475Z,8.30
2023-05-02T16:17:57.556Z,9.27
2023-05-02T16:20:24.486Z,7.90
2023-05-02T16:22:51.373Z,8.35
2023-05-02T16:25:18.804Z,8.27
2023-05-02T16:27:45.622Z,8.80
2023-05-02T16:30:13.102Z,7.93
2023-05-02T16:32:40.515Z,8.93
2023-05-02T16:35:10.667Z,7.90
2023-05-02T16:37:37.559Z,7.07
2023-05-02T16:40:05.958Z,6.90
2023-05-02T16:42:33.162Z,7.25
2023-05-02T16:45:00.036Z,6.95
2023-05-02T16:47:28.004Z,7.07
2023-05-02T16:49:56.078Z,7.53
2023-05-02T16:52:23.078Z,7.15
2023-05-02T16:54:50.363Z,7.15
2023-05-02T16:57:19.760Z,6.80
2023-05-02T16:59:47.900Z,5.90
2023-05-02T17:02:15.749Z,6.28
2023-05-02T17:04:42.792Z,5.38
2023-05-02T17:07:11.714Z,5.07
2023-05-02T17:09:39.360Z,5.30
2023-05-02T17:12:07.104Z,6.18
2023-05-02T17:14:33.887Z,5.20
2023-05-02T17:17:01.040Z,6.50
2023-05-02T17:19:27.917Z,6.00
2023-05-02T17:21:54.893Z,6.03
2023-05-02T17:24:21.583Z,6.10
2023-05-02T17:26:49.012Z,6.22
2023-05-02T17:29:15.748Z,6.20
2023-05-02T17:31:43.419Z,6.35
2023-05-02T17:34:10.300Z,6.45
2023-05-02T17:36:37.041Z,6.40
2023-05-02T17:39:06.838Z,5.50
2023-05-02T17:41:36.440Z,5.25
2023-05-02T17:44:04.874Z,5.32
2023-05-02T17:46:32.674Z,5.72
2023-05-02T17:49:00.710Z,5.53
2023-05-02T17:51:27.567Z,5.40
2023-05-02T17:53:54.237Z,6.15
2023-05-02T17:56:21.012Z,5.70
2023-05-02T17:58:48.030Z,5.78
2023-05-02T18:01:14.807Z,5.82
2023-05-02T18:03:41.802Z,6.25
2023-05-02T18:06:09.020Z,6.10
2023-05-02T18:08:35.803Z,6.35
2023-05-02T18:11:03.435Z,5.93
2023-05-02T18:13:30.958Z,6.80
2023-05-02T18:15:58.672Z,6.40
2023-05-02T18:18:25.721Z,5.88
2023-05-02T18:20:52.403Z,6.38
2023-05-02T18:23:19.058Z,6.75
2023-05-02T18:25:45.680Z,6.15
2023-05-02T18:28:13.460Z,6.50
2023-05-02T18:30:40.339Z,8.20
2023-05-02T18:33:08.099Z,6.53
2023-05-02T18:35:35.610Z,6.95
2023-05-02T18:38:02.682Z,7.07
2023-05-02T18:40:29.339Z,7.65
2023-05-02T18:42:56.030Z,6.57
2023-05-02T18:45:22.680Z,7.15
2023-05-02T18:47:51.094Z,6.20
2023-05-02T18:50:18.267Z,7.90
2023-05-02T18:52:44.898Z,7.30
2023-05-02T18:55:11.555Z,8.18
2023-05-02T18:57:38.163Z,8.48
2023-05-02T19:00:08.138Z,8.40
2023-05-02T19:02:35.030Z,8.98
2023-05-02T19:05:10.826Z,9.18
2023-05-02T19:07:38.444Z,7.85
2023-05-02T19:10:05.758Z,8.48
2023-05-02T19:12:32.567Z,7.75
2023-05-02T19:14:59.450Z,8.25
2023-05-02T19:17:26.747Z,7.78
2023-05-02T19:19:53.997Z,7.78
2023-05-02T19:22:22.266Z,6.67
2023-05-02T19:24:49.442Z,7.00
2023-05-02T19:27:16.104Z,9.10
2023-05-02T19:29:42.819Z,9.77
2023-05-02T19:32:09.800Z,7.80
2023-05-02T19:34:37.152Z,7.25
2023-05-02T19:37:04.147Z,8.43
2023-05-02T19:39:31.514Z,9.35
2023-05-02T19:41:58.195Z,10.52
2023-05-02T19:44:24.864Z,12.52
2023-05-02T19:46:51.556Z,10.75
2023-05-02T19:49:18.112Z,10.23
2023-05-02T19:51:44.761Z,9.85
2023-05-02T19:54:11.795Z,10.88
2023-05-02T19:56:38.494Z,10.07
2023-05-02T19:59:05.104Z,9.23
2023-05-02T20:01:32.136Z,8.88
2023-05-02T20:03:58.854Z,7.55
2023-05-02T20:06:26.191Z,9.38
2023-05-02T20:08:52.939Z,11.07
2023-05-02T20:11:19.747Z,11.50
2023-05-02T20:13:46.415Z,10.75
2023-05-02T20:16:16.204Z,27.75
2023-05-02T20:18:42.912Z,16.63
2023-05-02T20:21:09.506Z,12.80
2023-05-02T20:23:36.162Z,11.82
2023-05-02T20:26:03.458Z,11.93
